createdAt,value
2024-02-22T00:00:27.801Z,24.63
2024-02-22T00:03:15.325Z,27.23
2024-02-22T00:06:03.674Z,31.87
2024-02-22T00:08:50.937Z,31.33
2024-02-22T00:11:38.452Z,25.57
2024-02-22T00:14:26.005Z,28.00
2024-02-22T00:17:13.652Z,28.33
2024-02-22T00:20:02.683Z,26.13
2024-02-22T00:22:50.278Z,29.10
2024-02-22T00:25:38.234Z,33.23
2024-02-22T00:28:26.117Z,24.60
2024-02-22T00:31:13.686Z,27.03
2024-02-22T00:34:00.979Z,25.63
2024-02-22T00:36:57.498Z,26.60
2024-02-22T00:39:47.360Z,29.50
2024-02-22T00:42:35.201Z,27.87
2024-02-22T00:45:22.477Z,26.00
2024-02-22T00:48:10.209Z,24.40
2024-02-22T00:50:57.682Z,26.37
2024-02-22T00:53:45.520Z,22.77
2024-02-22T00:56:32.994Z,24.77
2024-02-22T00:59:20.443Z,25.30
2024-02-22T01:02:08.616Z,27.90
2024-02-22T01:04:56.155Z,22.43
2024-02-22T01:07:43.831Z,23.17
2024-02-22T01:10:31.499Z,27.07
2024-02-22T01:13:19.032Z,22.10
2024-02-22T01:16:07.244Z,26.83
2024-02-22T01:18:54.782Z,25.43
2024-02-22T01:21:42.546Z,27.97
2024-02-22T01:24:30.056Z,25.03
2024-02-22T01:27:17.605Z,23.00
2024-02-22T01:30:05.872Z,24.07
2024-02-22T01:32:53.727Z,27.40
2024-02-22T01:35:41.015Z,24.17
2024-02-22T01:38:28.458Z,24.47
2024-02-22T01:41:17.026Z,24.60
2024-02-22T01:44:04.849Z,23.93
2024-02-22T01:46:52.518Z,24.83
2024-02-22T01:49:40.299Z,23.57
2024-02-22T01:52:29.800Z,22.47
2024-02-22T01:55:19.153Z,26.10
2024-02-22T01:58:06.596Z,23.47
2024-02-22T02:00:54.226Z,26.00
2024-02-22T02:03:41.532Z,26.77
2024-02-22T02:06:29.147Z,22.60
2024-02-22T02:09:17.754Z,21.83
2024-02-22T02:12:06.125Z,23.00
2024-02-22T02:14:55.517Z,24.57
2024-02-22T02:17:44.914Z,23.50
2024-02-22T02:20:40.404Z,21.10
2024-02-22T02:23:58.642Z,21.10
2024-02-22T02:26:46.527Z,21.43
2024-02-22T02:29:34.118Z,18.60
2024-02-22T02:32:21.557Z,22.73
2024-02-22T02:35:09.412Z,22.10
2024-02-22T02:37:59.640Z,23.10
2024-02-22T02:40:47.289Z,21.57
2024-02-22T02:43:34.690Z,20.77
2024-02-22T02:46:22.082Z,23.47
2024-02-22T02:49:09.459Z,23.63
2024-02-22T02:51:56.812Z,18.23
2024-02-22T02:54:44.397Z,21.60
2024-02-22T02:57:32.109Z,21.03
2024-02-22T03:00:19.770Z,26.37
2024-02-22T03:03:07.410Z,23.63
2024-02-22T03:05:55.109Z,19.83
2024-02-22T03:08:42.652Z,22.87
2024-02-22T03:11:30.150Z,24.33
2024-02-22T03:14:17.643Z,20.77
2024-02-22T03:17:05.029Z,22.87
2024-02-22T03:19:53.493Z,22.07
2024-02-22T03:22:41.939Z,23.83
2024-02-22T03:25:29.590Z,21.37
2024-02-22T03:28:17.520Z,21.90
2024-02-22T03:31:05.617Z,22.60
2024-02-22T03:33:52.837Z,23.10
2024-02-22T03:36:43.120Z,27.33
2024-02-22T03:39:30.677Z,20.57
2024-02-22T03:42:18.723Z,23.67
2024-02-22T03:45:06.790Z,25.13
2024-02-22T03:47:54.397Z,23.00
2024-02-22T03:50:44.844Z,25.77
2024-02-22T03:53:32.506Z,20.13
2024-02-22T03:56:20.905Z,23.47
2024-02-22T03:59:08.591Z,23.70
2024-02-22T04:01:56.136Z,25.60
2024-02-22T04:04:54.861Z,22.60
2024-02-22T04:07:43.837Z,23.90
2024-02-22T04:10:31.207Z,22.27
2024-02-22T04:13:19.154Z,23.07
2024-02-22T04:16:07.070Z,18.93
2024-02-22T04:18:54.794Z,22.53
2024-02-22T04:21:45.552Z,23.10
2024-02-22T04:24:32.861Z,20.17
2024-02-22T04:27:20.191Z,23.93
2024-02-22T04:30:08.425Z,20.80
2024-02-22T04:32:55.847Z,23.13
2024-02-22T04:35:46.874Z,22.13
2024-02-22T04:38:35.677Z,23.90
2024-02-22T04:41:23.415Z,23.10
2024-02-22T04:44:11.197Z,20.57
2024-02-22T04:46:58.521Z,20.13
2024-02-22T04:49:45.861Z,22.10
2024-02-22T04:52:33.349Z,20.30
2024-02-22T04:55:21.274Z,22.23
2024-02-22T04:58:08.701Z,23.37
2024-02-22T05:00:56.878Z,22.60
2024-02-22T05:03:44.761Z,23.33
2024-02-22T05:06:32.384Z,21.43
2024-02-22T05:09:20.537Z,17.47
2024-02-22T05:12:08.927Z,22.83
2024-02-22T05:14:56.694Z,19.67
2024-02-22T05:17:44.103Z,19.13
2024-02-22T05:20:31.653Z,21.70
2024-02-22T05:23:19.348Z,22.00
2024-02-22T05:26:06.849Z,21.10
2024-02-22T05:28:54.810Z,26.50
2024-02-22T05:31:42.610Z,19.67
2024-02-22T05:34:29.979Z,19.87
2024-02-22T05:37:17.510Z,21.90
2024-02-22T05:40:09.547Z,25.43
2024-02-22T05:42:57.303Z,23.83
2024-02-22T05:45:48.436Z,23.97
2024-02-22T05:48:36.169Z,19.93
2024-02-22T05:51:23.562Z,22.50
2024-02-22T05:54:11.173Z,22.47
2024-02-22T05:56:58.472Z,20.10
2024-02-22T05:59:46.129Z,21.57
2024-02-22T06:02:33.627Z,23.37
2024-02-22T06:05:21.065Z,26.50
2024-02-22T06:08:08.878Z,21.60
2024-02-22T06:10:56.578Z,20.70
2024-02-22T06:13:44.502Z,19.37
2024-02-22T06:16:31.951Z,20.13
2024-02-22T06:19:19.486Z,20.80
2024-02-22T06:22:06.932Z,20.30
2024-02-22T06:24:54.337Z,22.97
2024-02-22T06:27:46.707Z,19.80
2024-02-22T06:30:34.031Z,19.20
2024-02-22T06:33:23.230Z,21.17
2024-02-22T06:36:11.330Z,22.63
2024-02-22T06:38:58.844Z,25.33
2024-02-22T06:41:46.578Z,19.57
2024-02-22T06:44:33.858Z,23.37
2024-02-22T06:47:21.438Z,19.10
2024-02-22T06:50:09.100Z,19.63
2024-02-22T06:52:56.611Z,36.43
2024-02-22T06:55:44.816Z,20.83
2024-02-22T06:58:32.234Z,16.53
2024-02-22T07:01:19.892Z,17.20
2024-02-22T07:04:09.869Z,15.93
2024-02-22T07:06:58.494Z,22.20
2024-02-22T07:09:45.841Z,19.23
2024-02-22T07:12:33.830Z,17.00
2024-02-22T07:15:21.575Z,18.50
2024-02-22T07:18:09.332Z,16.47
2024-02-22T07:20:59.120Z,15.93
2024-02-22T07:23:47.171Z,15.67
2024-02-22T07:26:34.944Z,14.43
2024-02-22T07:29:22.934Z,16.13
2024-02-22T07:32:10.282Z,14.97
2024-02-22T07:34:57.793Z,11.80
2024-02-22T07:37:45.079Z,14.57
2024-02-22T07:40:33.133Z,13.27
2024-02-22T07:43:20.622Z,13.47
2024-02-22T07:46:07.974Z,11.73
2024-02-22T07:48:57.192Z,15.43
2024-02-22T07:51:53.710Z,13.63
2024-02-22T07:54:48.858Z,12.13
2024-02-22T07:57:37.067Z,14.17
2024-02-22T08:00:25.114Z,13.40
2024-02-22T08:03:13.903Z,11.47
2024-02-22T08:06:01.486Z,13.00
2024-02-22T08:08:49.486Z,11.50
2024-02-22T08:11:37.077Z,11.83
2024-02-22T08:14:25.050Z,12.93
2024-02-22T08:17:17.793Z,10.20
2024-02-22T08:20:08.269Z,11.60
2024-02-22T08:22:56.448Z,11.97
2024-02-22T08:25:44.470Z,9.90
2024-02-22T08:28:34.142Z,11.10
2024-02-22T08:31:24.419Z,11.03
2024-02-22T08:34:14.747Z,9.23
2024-02-22T08:37:02.182Z,11.70
2024-02-22T08:39:50.522Z,9.93
2024-02-22T08:42:38.423Z,9.47
2024-02-22T08:45:26.394Z,11.60
2024-02-22T08:48:16.272Z,8.60
2024-02-22T08:51:04.656Z,11.93
2024-02-22T08:53:52.238Z,11.80
2024-02-22T08:56:39.676Z,11.60
2024-02-22T08:59:26.969Z,10.27
2024-02-22T09:02:15.333Z,8.07
2024-02-22T09:05:03.498Z,10.27
2024-02-22T09:07:52.714Z,11.07
2024-02-22T09:10:40.575Z,9.03
2024-02-22T09:13:28.049Z,10.37
2024-02-22T09:16:15.683Z,13.53
2024-02-22T09:19:03.415Z,8.83
2024-02-22T09:21:51.704Z,9.83
2024-02-22T09:24:43.340Z,8.00
2024-02-22T09:27:31.961Z,12.60
2024-02-22T09:30:19.364Z,11.43
2024-02-22T09:33:09.132Z,8.40
2024-02-22T09:35:57.450Z,8.67
2024-02-22T09:38:45.111Z,10.80
2024-02-22T09:41:32.790Z,9.87
2024-02-22T09:44:21.060Z,8.20
2024-02-22T09:47:09.835Z,10.63
2024-02-22T09:49:58.509Z,10.37
2024-02-22T09:52:47.479Z,10.17
2024-02-22T09:55:36.680Z,11.07
2024-02-22T09:58:25.042Z,8.87
2024-02-22T10:01:12.377Z,13.93
2024-02-22T10:04:13.393Z,8.70
2024-02-22T10:07:01.930Z,10.00
2024-02-22T10:09:53.969Z,7.80
2024-02-22T10:12:46.102Z,8.87
2024-02-22T10:15:35.031Z,8.07
2024-02-22T10:18:26.807Z,8.83
2024-02-22T10:21:18.834Z,8.00
2024-02-22T10:24:07.255Z,10.27
2024-02-22T10:27:07.460Z,11.03
2024-02-22T10:29:57.491Z,10.93
2024-02-22T10:32:47.162Z,10.27
2024-02-22T10:35:36.225Z,8.10
2024-02-22T10:38:23.695Z,9.20
2024-02-22T10:41:12.359Z,9.63
2024-02-22T10:44:03.429Z,7.90
2024-02-22T10:46:52.634Z,8.43
2024-02-22T10:49:40.577Z,9.87
2024-02-22T10:52:28.825Z,11.13
2024-02-22T10:55:17.922Z,8.77
2024-02-22T10:58:07.179Z,8.33
2024-02-22T11:00:56.496Z,10.20
2024-02-22T11:03:45.571Z,7.80
2024-02-22T11:06:40.619Z,8.13
2024-02-22T11:09:28.091Z,7.73
2024-02-22T11:12:17.404Z,7.53
2024-02-22T11:15:08.402Z,7.63
2024-02-22T11:17:58.986Z,9.37
2024-02-22T11:20:46.984Z,8.97
2024-02-22T11:23:35.693Z,9.70
2024-02-22T11:26:23.562Z,8.73
2024-02-22T11:29:11.254Z,8.80
2024-02-22T11:32:06.269Z,7.43
2024-02-22T11:34:57.461Z,7.50
2024-02-22T11:37:48.689Z,8.83
2024-02-22T11:40:37.026Z,9.67
2024-02-22T11:43:27.306Z,11.47
2024-02-22T11:46:14.673Z,9.10
2024-02-22T11:49:03.046Z,8.60
2024-02-22T11:51:51.220Z,9.23
2024-02-22T11:54:39.542Z,7.83
2024-02-22T11:57:27.127Z,11.03
2024-02-22T12:00:15.298Z,6.67
2024-02-22T12:03:03.991Z,7.73
2024-02-22T12:05:52.204Z,7.83
2024-02-22T12:08:40.008Z,6.03
2024-02-22T12:11:27.764Z,6.77
2024-02-22T12:14:15.586Z,8.43
2024-02-22T12:17:03.301Z,8.67
2024-02-22T12:19:54.366Z,8.97
2024-02-22T12:22:46.536Z,8.43
2024-02-22T12:25:40.696Z,6.47
2024-02-22T12:28:28.751Z,7.17
2024-02-22T12:31:19.981Z,7.90
2024-02-22T12:34:08.074Z,6.97
2024-02-22T12:36:55.505Z,8.87
2024-02-22T12:39:43.079Z,7.30
2024-02-22T12:42:31.414Z,6.43
2024-02-22T12:45:21.107Z,7.73
2024-02-22T12:48:13.832Z,10.70
2024-02-22T12:51:01.423Z,7.70
2024-02-22T12:53:49.830Z,6.63
2024-02-22T12:56:37.524Z,7.47
2024-02-22T12:59:30.213Z,8.57
2024-02-22T13:02:17.806Z,9.27
2024-02-22T13:05:06.601Z,9.07
2024-02-22T13:07:57.527Z,7.47
2024-02-22T13:10:45.755Z,7.87
2024-02-22T13:13:34.224Z,9.23
2024-02-22T13:16:24.384Z,7.83
2024-02-22T13:19:12.557Z,9.17
2024-02-22T13:22:00.810Z,7.43
2024-02-22T13:24:48.702Z,8.13
2024-02-22T13:27:36.994Z,8.27
2024-02-22T13:30:25.644Z,11.13
2024-02-22T13:33:16.579Z,9.17
2024-02-22T13:36:04.672Z,8.63
2024-02-22T13:38:52.334Z,8.03
2024-02-22T13:41:40.102Z,8.67
2024-02-22T13:44:31.009Z,7.57
2024-02-22T13:47:19.026Z,6.73
2024-02-22T13:50:07.328Z,8.17
2024-02-22T13:52:55.025Z,10.00
2024-02-22T13:55:42.411Z,8.53
2024-02-22T13:58:33.460Z,8.13
2024-02-22T14:01:21.125Z,7.03
2024-02-22T14:04:08.694Z,8.10
2024-02-22T14:06:57.614Z,9.80
2024-02-22T14:09:45.876Z,6.97
2024-02-22T14:12:34.221Z,7.00
2024-02-22T14:15:21.465Z,8.80
2024-02-22T14:18:09.081Z,9.10
2024-02-22T14:20:56.895Z,10.87
2024-02-22T14:23:44.672Z,8.53
2024-02-22T14:26:32.247Z,8.97
2024-02-22T14:29:20.774Z,9.33
2024-02-22T14:32:11.408Z,9.13
2024-02-22T14:34:59.655Z,11.10
2024-02-22T14:37:46.961Z,8.57
2024-02-22T14:40:34.243Z,10.00
2024-02-22T14:43:23.219Z,9.57
2024-02-22T14:46:10.932Z,10.13
2024-02-22T14:48:58.317Z,9.70
2024-02-22T14:51:45.559Z,10.67
2024-02-22T14:54:33.035Z,9.53
2024-02-22T14:57:20.309Z,9.97
2024-02-22T15:00:12.344Z,10.73
2024-02-22T15:02:59.501Z,10.60
2024-02-22T15:05:46.897Z,12.30
2024-02-22T15:08:37.207Z,11.83
2024-02-22T15:11:25.231Z,11.07
2024-02-22T15:14:13.241Z,11.50
2024-02-22T15:17:01.724Z,9.07
2024-02-22T15:19:53.315Z,9.77
2024-02-22T15:22:41.378Z,13.53
2024-02-22T15:25:28.845Z,10.70
2024-02-22T15:28:16.922Z,9.87
2024-02-22T15:31:04.354Z,14.87
2024-02-22T15:33:58.012Z,12.77
2024-02-22T15:36:48.572Z,9.67
2024-02-22T15:39:40.504Z,10.47
2024-02-22T15:42:27.968Z,11.20
2024-02-22T15:45:16.465Z,10.90
2024-02-22T15:48:04.273Z,11.07
2024-02-22T15:50:52.207Z,15.70
2024-02-22T15:53:39.430Z,10.43
2024-02-22T15:56:29.119Z,11.17
2024-02-22T15:59:16.604Z,13.20
2024-02-22T16:02:04.292Z,12.80
2024-02-22T16:04:53.578Z,11.20
2024-02-22T16:07:42.764Z,12.10
2024-02-22T16:10:30.366Z,12.33
2024-02-22T16:13:17.769Z,11.40
2024-02-22T16:16:05.823Z,12.33
2024-02-22T16:18:57.724Z,12.10
2024-02-22T16:21:45.723Z,12.80
2024-02-22T16:24:35.221Z,14.93
2024-02-22T16:27:23.105Z,13.03
2024-02-22T16:30:11.146Z,13.20
2024-02-22T16:32:59.285Z,11.33
2024-02-22T16:35:46.982Z,12.87
2024-02-22T16:38:38.314Z,11.70
2024-02-22T16:41:32.163Z,11.20
2024-02-22T16:44:20.274Z,12.67
2024-02-22T16:47:15.653Z,12.50
2024-02-22T16:50:03.487Z,13.70
2024-02-22T16:52:51.175Z,11.10
2024-02-22T16:55:38.631Z,13.40
2024-02-22T16:58:26.063Z,11.47
2024-02-22T17:01:13.609Z,12.57
2024-02-22T17:04:01.363Z,13.67
2024-02-22T17:06:48.873Z,13.00
2024-02-22T17:09:36.382Z,13.80
2024-02-22T17:12:23.788Z,11.93
2024-02-22T17:15:11.476Z,9.97
2024-02-22T17:17:59.895Z,14.10
2024-02-22T17:20:47.563Z,12.20
2024-02-22T17:23:34.971Z,11.27
2024-02-22T17:26:22.383Z,12.13
2024-02-22T17:29:09.765Z,11.87
2024-02-22T17:31:57.222Z,11.03
2024-02-22T17:34:45.670Z,11.23
2024-02-22T17:37:33.026Z,13.17
2024-02-22T17:40:20.390Z,12.33
2024-02-22T17:43:07.815Z,12.83
2024-02-22T17:45:55.637Z,11.60
2024-02-22T17:48:43.660Z,13.83
2024-02-22T17:51:36.585Z,11.53
2024-02-22T17:54:28.363Z,15.97
2024-02-22T17:57:16.494Z,13.60
2024-02-22T18:00:06.684Z,14.63
2024-02-22T18:03:03.339Z,14.00
2024-02-22T18:05:52.368Z,13.23
2024-02-22T18:08:41.113Z,13.60
2024-02-22T18:11:29.427Z,13.87
2024-02-22T18:14:17.312Z,14.60
2024-02-22T18:17:06.274Z,12.93
2024-02-22T18:19:54.009Z,13.07
2024-02-22T18:22:41.389Z,13.07
2024-02-22T18:25:29.351Z,15.53
2024-02-22T18:28:16.642Z,11.47
2024-02-22T18:31:05.163Z,12.97
2024-02-22T18:33:52.791Z,12.47
2024-02-22T18:36:40.348Z,12.43
2024-02-22T18:39:27.936Z,14.47
2024-02-22T18:42:15.644Z,12.53
2024-02-22T18:45:04.166Z,11.97
2024-02-22T18:47:53.803Z,16.50
2024-02-22T18:50:43.949Z,11.23
2024-02-22T18:53:31.627Z,12.23
2024-02-22T18:56:19.005Z,11.10
2024-02-22T18:59:06.801Z,12.67
2024-02-22T19:01:54.185Z,12.90
2024-02-22T19:04:42.907Z,12.50
2024-02-22T19:07:31.789Z,11.70
2024-02-22T19:10:19.697Z,14.63
2024-02-22T19:13:08.278Z,12.83
2024-02-22T19:15:56.276Z,16.67
2024-02-22T19:18:43.660Z,12.27
2024-02-22T19:21:33.451Z,12.67
2024-02-22T19:24:21.282Z,12.33
2024-02-22T19:27:08.816Z,11.63
2024-02-22T19:29:56.478Z,15.63
2024-02-22T19:32:45.216Z,13.90
2024-02-22T19:35:32.779Z,13.90
2024-02-22T19:38:22.092Z,12.47
2024-02-22T19:41:09.690Z,12.90
2024-02-22T19:43:57.293Z,12.47
2024-02-22T19:46:45.167Z,11.50
2024-02-22T19:49:34.842Z,14.37
2024-02-22T19:52:22.736Z,12.47
2024-02-22T19:55:10.813Z,12.90
2024-02-22T19:58:01.891Z,10.93
2024-02-22T20:00:49.911Z,15.33
2024-02-22T20:03:38.702Z,13.97
2024-02-22T20:06:27.277Z,12.27
2024-02-22T20:09:15.311Z,15.33
2024-02-22T20:12:07.437Z,13.40
2024-02-22T20:14:56.014Z,13.10
2024-02-22T20:17:44.878Z,14.33
2024-02-22T20:20:33.133Z,12.00
2024-02-22T20:23:22.834Z,13.67
2024-02-22T20:26:10.735Z,14.53
2024-02-22T20:28:59.197Z,12.77
2024-02-22T20:31:50.945Z,15.97
2024-02-22T20:34:38.941Z,13.13
2024-02-22T20:37:26.737Z,12.23
2024-02-22T20:40:15.079Z,12.43
2024-02-22T20:43:03.308Z,14.73
2024-02-22T20:45:57.846Z,14.00
2024-02-22T20:48:46.578Z,12.03
2024-02-22T20:51:34.123Z,12.03
2024-02-22T20:54:22.977Z,13.77
2024-02-22T20:57:10.718Z,13.23
2024-02-22T20:59:58.197Z,13.33
2024-02-22T21:02:45.747Z,12.93
2024-02-22T21:05:35.967Z,11.23
2024-02-22T21:08:23.923Z,14.17
2024-02-22T21:11:11.699Z,11.07
2024-02-22T21:14:00.422Z,14.33
2024-02-22T21:16:48.260Z,12.53
2024-02-22T21:19:38.155Z,10.87
2024-02-22T21:22:29.482Z,14.27
2024-02-22T21:25:17.657Z,12.27
2024-02-22T21:28:05.763Z,11.60
2024-02-22T21:30:53.273Z,11.03
2024-02-22T21:33:41.921Z,14.13
2024-02-22T21:36:29.736Z,13.97
2024-02-22T21:39:17.533Z,11.97
2024-02-22T21:42:08.298Z,11.33
2024-02-22T21:44:55.662Z,11.93
2024-02-22T21:47:43.605Z,12.97
2024-02-22T21:50:31.262Z,12.83
2024-02-22T21:53:18.811Z,10.37
2024-02-22T21:56:07.555Z,11.77
2024-02-22T21:58:54.988Z,11.63
2024-02-22T22:01:42.689Z,12.23
2024-02-22T22:04:30.219Z,12.47
2024-02-22T22:07:17.509Z,11.03
2024-02-22T22:10:05.474Z,12.53
2024-02-22T22:12:52.804Z,13.30
2024-02-22T22:15:40.456Z,11.70
2024-02-22T22:18:28.175Z,10.53
2024-02-22T22:21:25.015Z,11.27
2024-02-22T22:24:16.340Z,12.70
2024-02-22T22:27:03.878Z,11.33
2024-02-22T22:29:51.581Z,12.33
2024-02-22T22:32:39.159Z,12.37
2024-02-22T22:35:26.801Z,12.53
2024-02-22T22:38:14.743Z,11.90
2024-02-22T22:41:02.540Z,13.27
2024-02-22T22:43:50.125Z,11.10
2024-02-22T22:46:37.676Z,11.03
2024-02-22T22:49:25.495Z,9.80
2024-02-22T22:52:13.378Z,10.47
2024-02-22T22:55:01.034Z,10.23
2024-02-22T22:57:48.483Z,13.20
2024-02-22T23:00:36.904Z,11.10
2024-02-22T23:03:27.916Z,11.27
2024-02-22T23:06:19.172Z,12.23
2024-02-22T23:09:06.513Z,11.07
2024-02-22T23:11:54.683Z,12.03
2024-02-22T23:14:42.120Z,12.67
2024-02-22T23:17:29.635Z,12.67
2024-02-22T23:20:17.197Z,13.17
2024-02-22T23:23:05.262Z,13.77
2024-02-22T23:25:53.248Z,11.50
2024-02-22T23:28:41.247Z,13.03
2024-02-22T23:31:31.958Z,11.33
2024-02-22T23:34:19.344Z,11.10
2024-02-22T23:37:07.152Z,12.33
2024-02-22T23:39:55.753Z,11.47
2024-02-22T23:42:43.026Z,12.30
2024-02-22T23:45:30.608Z,12.23
2024-02-22T23:48:18.187Z,14.10
2024-02-22T23:51:06.006Z,12.87
2024-02-22T23:53:54.216Z,13.23
2024-02-22T23:56:45.301Z,12.17
2024-02-22T23:59:32.894Z,13.97
